sensor_id;sensor_type;location;lat;lon;timestamp;P1;durP1;ratioP1;P2;durP2;ratioP2
76292;SDS011;67256;51.154;4.164;2023-02-15T00:02:15;61.15;;;38.47;;
76292;SDS011;67256;51.154;4.164;2023-02-15T00:04:41;60.42;;;37.25;;
76292;SDS011;67256;51.154;4.164;2023-02-15T00:07:16;61.72;;;38.25;;
76292;SDS011;67256;51.154;4.164;2023-02-15T00:09:46;59.10;;;36.97;;
76292;SDS011;67256;51.154;4.164;2023-02-15T00:12:13;63.03;;;37.92;;
76292;SDS011;67256;51.154;4.164;2023-02-15T00:14:40;66.53;;;38.92;;
76292;SDS011;67256;51.154;4.164;2023-02-15T00:17:07;61.15;;;39.22;;
76292;SDS011;67256;51.154;4.164;2023-02-15T00:19:33;63.20;;;36.53;;
76292;SDS011;67256;51.154;4.164;2023-02-15T00:21:58;69.13;;;39.80;;
76292;SDS011;67256;51.154;4.164;2023-02-15T00:24:25;64.18;;;37.33;;
76292;SDS011;67256;51.154;4.164;2023-02-15T00:26:51;64.38;;;39.88;;
76292;SDS011;67256;51.154;4.164;2023-02-15T00:29:17;56.70;;;37.65;;
76292;SDS011;67256;51.154;4.164;2023-02-15T00:31:44;60.92;;;38.22;;
76292;SDS011;67256;51.154;4.164;2023-02-15T00:34:14;57.08;;;37.70;;
76292;SDS011;67256;51.154;4.164;2023-02-15T00:36:48;61.00;;;37.03;;
76292;SDS011;67256;51.154;4.164;2023-02-15T00:39:14;67.00;;;35.88;;
76292;SDS011;67256;51.154;4.164;2023-02-15T00:41:41;66.03;;;37.75;;
76292;SDS011;67256;51.154;4.164;2023-02-15T00:44:07;64.28;;;36.22;;
76292;SDS011;67256;51.154;4.164;2023-02-15T00:46:34;60.33;;;37.30;;
76292;SDS011;67256;51.154;4.164;2023-02-15T00:49:00;72.57;;;39.05;;
76292;SDS011;67256;51.154;4.164;2023-02-15T00:51:26;59.42;;;37.33;;
76292;SDS011;67256;51.154;4.164;2023-02-15T00:53:53;63.97;;;39.20;;
76292;SDS011;67256;51.154;4.164;2023-02-15T00:56:19;61.03;;;37.40;;
76292;SDS011;67256;51.154;4.164;2023-02-15T00:58:45;56.65;;;37.20;;
76292;SDS011;67256;51.154;4.164;2023-02-15T01:01:15;65.00;;;38.28;;
76292;SDS011;67256;51.154;4.164;2023-02-15T01:03:44;54.05;;;35.75;;
76292;SDS011;67256;51.154;4.164;2023-02-15T01:06:12;66.00;;;36.97;;
76292;SDS011;67256;51.154;4.164;2023-02-15T01:08:39;67.40;;;39.60;;
76292;SDS011;67256;51.154;4.164;2023-02-15T01:11:06;58.90;;;37.03;;
76292;SDS011;67256;51.154;4.164;2023-02-15T01:13:34;57.60;;;36.40;;
76292;SDS011;67256;51.154;4.164;2023-02-15T01:16:01;59.40;;;37.88;;
76292;SDS011;67256;51.154;4.164;2023-02-15T01:18:28;63.55;;;38.63;;
76292;SDS011;67256;51.154;4.164;2023-02-15T01:20:55;66.13;;;40.75;;
76292;SDS011;67256;51.154;4.164;2023-02-15T01:23:22;60.28;;;36.17;;
76292;SDS011;67256;51.154;4.164;2023-02-15T01:25:48;57.50;;;35.60;;
76292;SDS011;67256;51.154;4.164;2023-02-15T01:28:14;61.75;;;38.58;;
76292;SDS011;67256;51.154;4.164;2023-02-15T01:30:40;64.15;;;38.55;;
76292;SDS011;67256;51.154;4.164;2023-02-15T01:33:07;66.95;;;38.30;;
76292;SDS011;67256;51.154;4.164;2023-02-15T01:35:42;62.03;;;35.58;;
76292;SDS011;67256;51.154;4.164;2023-02-15T01:38:09;52.35;;;33.47;;
76292;SDS011;67256;51.154;4.164;2023-02-15T01:40:35;61.08;;;37.33;;
76292;SDS011;67256;51.154;4.164;2023-02-15T01:43:00;63.13;;;34.20;;
76292;SDS011;67256;51.154;4.164;2023-02-15T01:45:30;58.30;;;37.42;;
76292;SDS011;67256;51.154;4.164;2023-02-15T01:48:04;52.30;;;33.85;;
76292;SDS011;67256;51.154;4.164;2023-02-15T01:50:37;58.57;;;35.57;;
76292;SDS011;67256;51.154;4.164;2023-02-15T01:53:25;54.50;;;33.97;;
76292;SDS011;67256;51.154;4.164;2023-02-15T01:58:24;68.97;;;40.07;;
76292;SDS011;67256;51.154;4.164;2023-02-15T02:00:52;59.40;;;37.17;;
76292;SDS011;67256;51.154;4.164;2023-02-15T02:03:23;59.40;;;36.37;;
76292;SDS011;67256;51.154;4.164;2023-02-15T02:06:09;62.40;;;35.72;;
76292;SDS011;67256;51.154;4.164;2023-02-15T02:08:35;64.72;;;37.90;;
76292;SDS011;67256;51.154;4.164;2023-02-15T02:11:02;60.25;;;38.08;;
76292;SDS011;67256;51.154;4.164;2023-02-15T02:13:28;61.33;;;37.28;;
76292;SDS011;67256;51.154;4.164;2023-02-15T02:15:59;61.03;;;37.78;;
76292;SDS011;67256;51.154;4.164;2023-02-15T02:21:25;58.25;;;35.00;;
76292;SDS011;67256;51.154;4.164;2023-02-15T02:46:33;63.80;;;36.58;;
76292;SDS011;67256;51.154;4.164;2023-02-15T02:49:15;61.05;;;37.92;;
76292;SDS011;67256;51.154;4.164;2023-02-15T02:51:41;59.55;;;35.47;;
76292;SDS011;67256;51.154;4.164;2023-02-15T02:54:08;60.20;;;36.90;;
76292;SDS011;67256;51.154;4.164;2023-02-15T02:56:37;58.33;;;35.83;;
76292;SDS011;67256;51.154;4.164;2023-02-15T02:59:11;55.22;;;35.38;;
76292;SDS011;67256;51.154;4.164;2023-02-15T03:01:47;56.28;;;34.08;;
76292;SDS011;67256;51.154;4.164;2023-02-15T03:04:25;65.88;;;37.35;;
76292;SDS011;67256;51.154;4.164;2023-02-15T03:06:57;61.35;;;35.95;;
76292;SDS011;67256;51.154;4.164;2023-02-15T03:09:29;59.20;;;34.80;;
76292;SDS011;67256;51.154;4.164;2023-02-15T03:12:07;51.17;;;33.50;;
76292;SDS011;67256;51.154;4.164;2023-02-15T03:14:47;60.70;;;35.85;;
76292;SDS011;67256;51.154;4.164;2023-02-15T03:17:15;58.83;;;34.25;;
76292;SDS011;67256;51.154;4.164;2023-02-15T03:19:43;57.50;;;35.20;;
76292;SDS011;67256;51.154;4.164;2023-02-15T03:22:23;73.72;;;41.03;;
76292;SDS011;67256;51.154;4.164;2023-02-15T03:24:57;58.10;;;35.65;;
76292;SDS011;67256;51.154;4.164;2023-02-15T03:27:34;63.38;;;36.42;;
76292;SDS011;67256;51.154;4.164;2023-02-15T03:30:03;58.55;;;35.60;;
76292;SDS011;67256;51.154;4.164;2023-02-15T03:32:32;62.85;;;36.47;;
76292;SDS011;67256;51.154;4.164;2023-02-15T03:35:00;59.42;;;36.95;;
76292;SDS011;67256;51.154;4.164;2023-02-15T03:37:28;61.40;;;35.03;;
76292;SDS011;67256;51.154;4.164;2023-02-15T03:40:11;55.35;;;34.67;;
76292;SDS011;67256;51.154;4.164;2023-02-15T03:43:19;58.65;;;35.50;;
76292;SDS011;67256;51.154;4.164;2023-02-15T03:45:54;64.07;;;37.55;;
76292;SDS011;67256;51.154;4.164;2023-02-15T03:48:31;66.45;;;38.88;;
76292;SDS011;67256;51.154;4.164;2023-02-15T03:51:02;55.72;;;34.78;;
76292;SDS011;67256;51.154;4.164;2023-02-15T03:53:51;58.08;;;35.38;;
76292;SDS011;67256;51.154;4.164;2023-02-15T03:56:19;56.13;;;35.17;;
76292;SDS011;67256;51.154;4.164;2023-02-15T03:58:45;68.38;;;40.80;;
76292;SDS011;67256;51.154;4.164;2023-02-15T04:01:34;62.65;;;38.83;;
76292;SDS011;67256;51.154;4.164;2023-02-15T04:04:22;52.05;;;33.33;;
76292;SDS011;67256;51.154;4.164;2023-02-15T04:06:55;63.35;;;37.67;;
76292;SDS011;67256;51.154;4.164;2023-02-15T04:09:21;68.10;;;35.13;;
76292;SDS011;67256;51.154;4.164;2023-02-15T04:12:05;55.08;;;35.53;;
76292;SDS011;67256;51.154;4.164;2023-02-15T04:14:31;57.13;;;35.95;;
76292;SDS011;67256;51.154;4.164;2023-02-15T04:17:15;64.28;;;37.25;;
76292;SDS011;67256;51.154;4.164;2023-02-15T04:19:42;53.55;;;34.35;;
76292;SDS011;67256;51.154;4.164;2023-02-15T04:22:26;57.55;;;34.83;;
76292;SDS011;67256;51.154;4.164;2023-02-15T04:25:10;57.55;;;37.63;;
76292;SDS011;67256;51.154;4.164;2023-02-15T04:27:37;64.35;;;38.97;;
76292;SDS011;67256;51.154;4.164;2023-02-15T04:30:04;62.65;;;36.92;;
76292;SDS011;67256;51.154;4.164;2023-02-15T04:32:31;66.72;;;37.90;;
76292;SDS011;67256;51.154;4.164;2023-02-15T04:34:57;68.28;;;40.80;;
76292;SDS011;67256;51.154;4.164;2023-02-15T04:37:23;61.95;;;38.95;;
76292;SDS011;67256;51.154;4.164;2023-02-15T04:39:49;65.03;;;38.28;;
76292;SDS011;67256;51.154;4.164;2023-02-15T04:42:15;65.32;;;39.08;;
76292;SDS011;67256;51.154;4.164;2023-02-15T04:44:41;62.67;;;38.65;;
76292;SDS011;67256;51.154;4.164;2023-02-15T04:47:06;57.55;;;37.15;;
76292;SDS011;67256;51.154;4.164;2023-02-15T04:49:32;66.28;;;40.00;;
76292;SDS011;67256;51.154;4.164;2023-02-15T04:51:58;60.65;;;36.88;;
76292;SDS011;67256;51.154;4.164;2023-02-15T04:54:24;60.65;;;37.30;;
76292;SDS011;67256;51.154;4.164;2023-02-15T04:56:50;67.53;;;38.15;;
76292;SDS011;67256;51.154;4.164;2023-02-15T04:59:16;58.25;;;36.42;;
76292;SDS011;67256;51.154;4.164;2023-02-15T05:01:42;59.55;;;35.22;;
76292;SDS011;67256;51.154;4.164;2023-02-15T05:04:07;58.25;;;35.97;;
76292;SDS011;67256;51.154;4.164;2023-02-15T05:06:34;66.13;;;36.78;;
76292;SDS011;67256;51.154;4.164;2023-02-15T05:09:00;61.75;;;37.45;;
76292;SDS011;67256;51.154;4.164;2023-02-15T05:11:26;62.08;;;37.97;;
76292;SDS011;67256;51.154;4.164;2023-02-15T05:13:52;60.13;;;35.95;;
76292;SDS011;67256;51.154;4.164;2023-02-15T05:16:18;62.63;;;37.10;;
76292;SDS011;67256;51.154;4.164;2023-02-15T05:18:44;56.10;;;35.40;;
76292;SDS011;67256;51.154;4.164;2023-02-15T05:21:09;62.90;;;36.72;;
76292;SDS011;67256;51.154;4.164;2023-02-15T05:23:35;58.35;;;36.70;;
76292;SDS011;67256;51.154;4.164;2023-02-15T05:26:01;60.95;;;36.35;;
76292;SDS011;67256;51.154;4.164;2023-02-15T05:28:45;57.55;;;34.38;;
76292;SDS011;67256;51.154;4.164;2023-02-15T05:31:15;61.55;;;36.17;;
76292;SDS011;67256;51.154;4.164;2023-02-15T05:33:44;59.10;;;35.60;;
76292;SDS011;67256;51.154;4.164;2023-02-15T05:36:10;58.72;;;35.90;;
76292;SDS011;67256;51.154;4.164;2023-02-15T05:38:36;57.42;;;37.60;;
76292;SDS011;67256;51.154;4.164;2023-02-15T05:41:03;64.57;;;39.63;;
76292;SDS011;67256;51.154;4.164;2023-02-15T05:43:30;66.22;;;39.58;;
76292;SDS011;67256;51.154;4.164;2023-02-15T05:45:56;58.03;;;35.05;;
76292;SDS011;67256;51.154;4.164;2023-02-15T05:48:23;61.28;;;36.55;;
76292;SDS011;67256;51.154;4.164;2023-02-15T05:51:02;62.50;;;36.15;;
76292;SDS011;67256;51.154;4.164;2023-02-15T05:53:30;66.63;;;38.05;;
76292;SDS011;67256;51.154;4.164;2023-02-15T05:55:57;64.57;;;38.20;;
76292;SDS011;67256;51.154;4.164;2023-02-15T05:58:25;54.15;;;34.53;;
76292;SDS011;67256;51.154;4.164;2023-02-15T06:00:52;68.03;;;41.25;;
76292;SDS011;67256;51.154;4.164;2023-02-15T06:03:18;60.63;;;37.55;;
76292;SDS011;67256;51.154;4.164;2023-02-15T06:05:44;66.95;;;41.88;;
76292;SDS011;67256;51.154;4.164;2023-02-15T06:08:10;67.95;;;39.92;;
76292;SDS011;67256;51.154;4.164;2023-02-15T06:10:36;66.90;;;39.50;;
76292;SDS011;67256;51.154;4.164;2023-02-15T06:13:02;65.32;;;36.47;;
76292;SDS011;67256;51.154;4.164;2023-02-15T06:15:28;68.60;;;38.40;;
76292;SDS011;67256;51.154;4.164;2023-02-15T06:17:54;70.35;;;40.70;;
76292;SDS011;67256;51.154;4.164;2023-02-15T06:20:19;61.88;;;36.25;;
76292;SDS011;67256;51.154;4.164;2023-02-15T06:22:45;71.88;;;41.70;;
76292;SDS011;67256;51.154;4.164;2023-02-15T06:25:13;70.47;;;40.92;;
76292;SDS011;67256;51.154;4.164;2023-02-15T06:27:40;77.60;;;42.05;;
76292;SDS011;67256;51.154;4.164;2023-02-15T06:30:07;76.63;;;47.25;;
76292;SDS011;67256;51.154;4.164;2023-02-15T06:32:34;75.05;;;45.88;;
76292;SDS011;67256;51.154;4.164;2023-02-15T06:35:00;88.80;;;51.45;;
76292;SDS011;67256;51.154;4.164;2023-02-15T06:37:26;91.20;;;54.78;;
76292;SDS011;67256;51.154;4.164;2023-02-15T06:39:51;70.22;;;41.22;;
76292;SDS011;67256;51.154;4.164;2023-02-15T06:42:17;61.90;;;35.88;;
76292;SDS011;67256;51.154;4.164;2023-02-15T06:44:44;71.65;;;42.90;;
76292;SDS011;67256;51.154;4.164;2023-02-15T06:47:10;65.78;;;39.95;;
76292;SDS011;67256;51.154;4.164;2023-02-15T06:49:36;80.35;;;46.38;;
76292;SDS011;67256;51.154;4.164;2023-02-15T06:52:02;76.07;;;45.33;;
76292;SDS011;67256;51.154;4.164;2023-02-15T06:54:29;75.65;;;45.95;;
76292;SDS011;67256;51.154;4.164;2023-02-15T06:56:55;73.50;;;42.88;;
76292;SDS011;67256;51.154;4.164;2023-02-15T06:59:21;67.03;;;42.13;;
76292;SDS011;67256;51.154;4.164;2023-02-15T07:01:47;67.97;;;40.00;;
76292;SDS011;67256;51.154;4.164;2023-02-15T07:04:14;61.17;;;37.92;;
76292;SDS011;67256;51.154;4.164;2023-02-15T07:06:40;64.07;;;37.90;;
76292;SDS011;67256;51.154;4.164;2023-02-15T07:09:05;64.03;;;39.15;;
76292;SDS011;67256;51.154;4.164;2023-02-15T07:11:31;65.53;;;37.72;;
76292;SDS011;67256;51.154;4.164;2023-02-15T07:14:16;62.70;;;37.78;;
76292;SDS011;67256;51.154;4.164;2023-02-15T07:16:42;67.20;;;36.40;;
76292;SDS011;67256;51.154;4.164;2023-02-15T07:19:08;64.07;;;37.28;;
76292;SDS011;67256;51.154;4.164;2023-02-15T07:21:34;61.80;;;37.28;;
76292;SDS011;67256;51.154;4.164;2023-02-15T07:24:00;57.45;;;37.53;;
76292;SDS011;67256;51.154;4.164;2023-02-15T07:26:26;58.30;;;35.80;;
76292;SDS011;67256;51.154;4.164;2023-02-15T07:28:52;65.32;;;38.72;;
76292;SDS011;67256;51.154;4.164;2023-02-15T07:31:18;67.65;;;38.75;;
76292;SDS011;67256;51.154;4.164;2023-02-15T07:33:45;66.07;;;39.58;;
76292;SDS011;67256;51.154;4.164;2023-02-15T07:36:11;69.78;;;39.33;;
76292;SDS011;67256;51.154;4.164;2023-02-15T07:38:38;72.70;;;39.60;;
76292;SDS011;67256;51.154;4.164;2023-02-15T07:41:06;71.82;;;39.55;;
76292;SDS011;67256;51.154;4.164;2023-02-15T07:43:35;70.38;;;40.35;;
76292;SDS011;67256;51.154;4.164;2023-02-15T07:46:02;71.22;;;43.08;;
76292;SDS011;67256;51.154;4.164;2023-02-15T07:48:31;67.70;;;38.75;;
76292;SDS011;67256;51.154;4.164;2023-02-15T07:51:00;57.95;;;38.28;;
76292;SDS011;67256;51.154;4.164;2023-02-15T07:53:30;70.18;;;41.75;;
76292;SDS011;67256;51.154;4.164;2023-02-15T07:56:03;63.00;;;39.35;;
76292;SDS011;67256;51.154;4.164;2023-02-15T07:58:31;66.68;;;38.47;;
76292;SDS011;67256;51.154;4.164;2023-02-15T08:01:17;63.08;;;38.50;;
76292;SDS011;67256;51.154;4.164;2023-02-15T08:03:51;56.28;;;37.70;;
76292;SDS011;67256;51.154;4.164;2023-02-15T08:06:17;62.83;;;36.75;;
76292;SDS011;67256;51.154;4.164;2023-02-15T08:08:43;62.10;;;37.92;;
76292;SDS011;67256;51.154;4.164;2023-02-15T08:13:56;58.22;;;35.15;;
76292;SDS011;67256;51.154;4.164;2023-02-15T08:16:37;60.08;;;36.95;;
76292;SDS011;67256;51.154;4.164;2023-02-15T08:21:42;54.20;;;36.22;;
76292;SDS011;67256;51.154;4.164;2023-02-15T08:24:09;57.95;;;35.15;;
76292;SDS011;67256;51.154;4.164;2023-02-15T08:26:37;61.40;;;35.75;;
76292;SDS011;67256;51.154;4.164;2023-02-15T08:29:03;67.30;;;38.22;;
76292;SDS011;67256;51.154;4.164;2023-02-15T08:31:31;61.10;;;37.20;;
76292;SDS011;67256;51.154;4.164;2023-02-15T08:33:58;59.92;;;36.33;;
76292;SDS011;67256;51.154;4.164;2023-02-15T08:36:26;60.40;;;36.70;;
76292;SDS011;67256;51.154;4.164;2023-02-15T08:38:53;60.38;;;37.95;;
76292;SDS011;67256;51.154;4.164;2023-02-15T08:43:54;59.88;;;35.85;;
76292;SDS011;67256;51.154;4.164;2023-02-15T08:46:23;67.30;;;38.72;;
76292;SDS011;67256;51.154;4.164;2023-02-15T08:48:50;62.78;;;37.97;;
76292;SDS011;67256;51.154;4.164;2023-02-15T08:51:20;64.55;;;36.72;;
76292;SDS011;67256;51.154;4.164;2023-02-15T08:53:52;64.07;;;37.40;;
76292;SDS011;67256;51.154;4.164;2023-02-15T08:56:23;59.72;;;36.08;;
76292;SDS011;67256;51.154;4.164;2023-02-15T08:58:52;63.13;;;36.85;;
76292;SDS011;67256;51.154;4.164;2023-02-15T09:01:22;56.58;;;36.90;;
76292;SDS011;67256;51.154;4.164;2023-02-15T09:03:55;68.07;;;38.08;;
76292;SDS011;67256;51.154;4.164;2023-02-15T09:06:22;68.78;;;40.70;;
76292;SDS011;67256;51.154;4.164;2023-02-15T09:08:49;63.22;;;37.45;;
76292;SDS011;67256;51.154;4.164;2023-02-15T09:16:21;60.65;;;38.28;;
76292;SDS011;67256;51.154;4.164;2023-02-15T09:18:50;53.17;;;35.15;;
76292;SDS011;67256;51.154;4.164;2023-02-15T09:21:20;61.90;;;33.42;;
76292;SDS011;67256;51.154;4.164;2023-02-15T09:23:48;56.03;;;33.92;;
76292;SDS011;67256;51.154;4.164;2023-02-15T09:26:16;56.78;;;34.33;;
76292;SDS011;67256;51.154;4.164;2023-02-15T09:28:43;67.25;;;37.83;;
76292;SDS011;67256;51.154;4.164;2023-02-15T09:31:14;55.03;;;32.53;;
76292;SDS011;67256;51.154;4.164;2023-02-15T09:33:42;55.53;;;34.88;;
76292;SDS011;67256;51.154;4.164;2023-02-15T09:36:17;58.00;;;33.72;;
76292;SDS011;67256;51.154;4.164;2023-02-15T09:38:46;51.88;;;32.78;;
76292;SDS011;67256;51.154;4.164;2023-02-15T09:56:58;59.58;;;34.00;;
76292;SDS011;67256;51.154;4.164;2023-02-15T10:10:49;51.03;;;32.38;;
76292;SDS011;67256;51.154;4.164;2023-02-15T10:17:03;56.60;;;34.10;;
76292;SDS011;67256;51.154;4.164;2023-02-15T10:22:29;52.35;;;32.72;;
76292;SDS011;67256;51.154;4.164;2023-02-15T10:25:05;53.00;;;31.88;;
76292;SDS011;67256;51.154;4.164;2023-02-15T10:30:10;52.65;;;31.98;;
76292;SDS011;67256;51.154;4.164;2023-02-15T10:32:59;60.83;;;33.72;;
76292;SDS011;67256;51.154;4.164;2023-02-15T10:38:16;52.70;;;31.33;;
76292;SDS011;67256;51.154;4.164;2023-02-15T10:49:30;54.05;;;31.63;;
76292;SDS011;67256;51.154;4.164;2023-02-15T10:55:02;48.17;;;29.45;;
76292;SDS011;67256;51.154;4.164;2023-02-15T11:05:57;47.10;;;30.40;;
76292;SDS011;67256;51.154;4.164;2023-02-15T11:08:24;46.38;;;29.67;;
76292;SDS011;67256;51.154;4.164;2023-02-15T11:11:29;49.40;;;30.27;;
76292;SDS011;67256;51.154;4.164;2023-02-15T11:13:49;48.08;;;29.52;;
76292;SDS011;67256;51.154;4.164;2023-02-15T11:16:21;50.05;;;29.70;;
76292;SDS011;67256;51.154;4.164;2023-02-15T11:21:44;50.95;;;29.63;;
76292;SDS011;67256;51.154;4.164;2023-02-15T11:24:16;46.78;;;27.90;;
76292;SDS011;67256;51.154;4.164;2023-02-15T11:31:55;49.92;;;28.85;;
76292;SDS011;67256;51.154;4.164;2023-02-15T11:34:26;50.83;;;29.95;;
76292;SDS011;67256;51.154;4.164;2023-02-15T11:36:58;52.10;;;28.75;;
76292;SDS011;67256;51.154;4.164;2023-02-15T11:39:28;45.60;;;29.10;;
76292;SDS011;67256;51.154;4.164;2023-02-15T11:41:58;49.00;;;28.10;;
76292;SDS011;67256;51.154;4.164;2023-02-15T11:44:37;46.85;;;28.63;;
76292;SDS011;67256;51.154;4.164;2023-02-15T11:47:10;43.47;;;27.58;;
76292;SDS011;67256;51.154;4.164;2023-02-15T11:49:36;46.90;;;28.13;;
76292;SDS011;67256;51.154;4.164;2023-02-15T11:52:06;44.47;;;27.17;;
76292;SDS011;67256;51.154;4.164;2023-02-15T11:54:37;46.05;;;29.13;;
76292;SDS011;67256;51.154;4.164;2023-02-15T11:57:31;44.22;;;29.52;;
76292;SDS011;67256;51.154;4.164;2023-02-15T12:00:16;48.20;;;28.98;;
76292;SDS011;67256;51.154;4.164;2023-02-15T12:02:53;47.15;;;27.75;;
76292;SDS011;67256;51.154;4.164;2023-02-15T12:05:23;60.53;;;29.58;;
76292;SDS011;67256;51.154;4.164;2023-02-15T12:08:12;47.30;;;30.35;;
76292;SDS011;67256;51.154;4.164;2023-02-15T12:10:51;47.47;;;30.08;;
76292;SDS011;67256;51.154;4.164;2023-02-15T12:13:25;45.00;;;27.90;;
76292;SDS011;67256;51.154;4.164;2023-02-15T12:15:52;51.13;;;29.33;;
76292;SDS011;67256;51.154;4.164;2023-02-15T12:21:00;51.10;;;28.08;;
76292;SDS011;67256;51.154;4.164;2023-02-15T12:23:51;53.40;;;29.38;;
76292;SDS011;67256;51.154;4.164;2023-02-15T12:26:27;47.67;;;30.17;;
76292;SDS011;67256;51.154;4.164;2023-02-15T12:28:56;43.92;;;28.73;;
76292;SDS011;67256;51.154;4.164;2023-02-15T12:31:28;48.53;;;29.63;;
76292;SDS011;67256;51.154;4.164;2023-02-15T12:34:03;45.00;;;29.35;;
76292;SDS011;67256;51.154;4.164;2023-02-15T12:36:56;51.70;;;30.48;;
76292;SDS011;67256;51.154;4.164;2023-02-15T12:39:26;44.05;;;29.40;;
76292;SDS011;67256;51.154;4.164;2023-02-15T12:44:35;45.92;;;29.45;;
76292;SDS011;67256;51.154;4.164;2023-02-15T12:47:03;46.40;;;29.17;;
76292;SDS011;67256;51.154;4.164;2023-02-15T12:52:33;45.13;;;28.33;;
76292;SDS011;67256;51.154;4.164;2023-02-15T12:57:46;51.63;;;29.63;;
76292;SDS011;67256;51.154;4.164;2023-02-15T13:02:47;48.03;;;30.02;;
76292;SDS011;67256;51.154;4.164;2023-02-15T13:05:19;48.83;;;30.10;;
76292;SDS011;67256;51.154;4.164;2023-02-15T13:07:49;48.03;;;29.23;;
76292;SDS011;67256;51.154;4.164;2023-02-15T13:10:22;47.90;;;29.33;;
76292;SDS011;67256;51.154;4.164;2023-02-15T13:12:51;47.25;;;31.38;;
76292;SDS011;67256;51.154;4.164;2023-02-15T13:15:26;50.63;;;31.20;;
76292;SDS011;67256;51.154;4.164;2023-02-15T13:17:57;50.13;;;31.67;;
76292;SDS011;67256;51.154;4.164;2023-02-15T13:20:24;47.50;;;31.52;;
76292;SDS011;67256;51.154;4.164;2023-02-15T13:22:54;49.50;;;30.65;;
76292;SDS011;67256;51.154;4.164;2023-02-15T13:25:32;47.53;;;31.07;;
76292;SDS011;67256;51.154;4.164;2023-02-15T13:28:10;53.88;;;32.65;;
76292;SDS011;67256;51.154;4.164;2023-02-15T13:30:42;50.42;;;31.88;;
76292;SDS011;67256;51.154;4.164;2023-02-15T13:33:14;48.03;;;30.92;;
76292;SDS011;67256;51.154;4.164;2023-02-15T13:35:42;50.78;;;31.98;;
76292;SDS011;67256;51.154;4.164;2023-02-15T13:38:13;48.15;;;29.80;;
76292;SDS011;67256;51.154;4.164;2023-02-15T13:41:03;55.63;;;30.85;;
76292;SDS011;67256;51.154;4.164;2023-02-15T13:43:44;44.03;;;29.80;;
76292;SDS011;67256;51.154;4.164;2023-02-15T13:46:20;44.97;;;29.85;;
76292;SDS011;67256;51.154;4.164;2023-02-15T13:54:45;48.42;;;31.77;;
76292;SDS011;67256;51.154;4.164;2023-02-15T14:08:28;48.13;;;31.50;;
76292;SDS011;67256;51.154;4.164;2023-02-15T14:10:59;46.55;;;30.73;;
76292;SDS011;67256;51.154;4.164;2023-02-15T14:19:21;50.70;;;32.47;;
76292;SDS011;67256;51.154;4.164;2023-02-15T14:21:56;47.13;;;29.10;;
76292;SDS011;67256;51.154;4.164;2023-02-15T14:24:43;46.92;;;32.42;;
76292;SDS011;67256;51.154;4.164;2023-02-15T14:27:19;47.63;;;31.52;;
76292;SDS011;67256;51.154;4.164;2023-02-15T14:34:57;45.28;;;31.50;;
76292;SDS011;67256;51.154;4.164;2023-02-15T14:43:37;55.22;;;31.67;;
76292;SDS011;67256;51.154;4.164;2023-02-15T14:46:23;45.80;;;29.60;;
76292;SDS011;67256;51.154;4.164;2023-02-15T14:54:08;48.70;;;29.88;;
76292;SDS011;67256;51.154;4.164;2023-02-15T14:56:34;48.95;;;30.10;;
76292;SDS011;67256;51.154;4.164;2023-02-15T14:59:11;47.35;;;31.00;;
76292;SDS011;67256;51.154;4.164;2023-02-15T15:01:41;48.05;;;31.42;;
76292;SDS011;67256;51.154;4.164;2023-02-15T15:04:22;48.72;;;30.15;;
76292;SDS011;67256;51.154;4.164;2023-02-15T15:09:46;48.42;;;31.50;;
76292;SDS011;67256;51.154;4.164;2023-02-15T15:14:50;49.53;;;29.75;;
76292;SDS011;67256;51.154;4.164;2023-02-15T15:19:59;44.40;;;29.83;;
76292;SDS011;67256;51.154;4.164;2023-02-15T15:22:32;50.05;;;31.67;;
76292;SDS011;67256;51.154;4.164;2023-02-15T15:30:46;46.60;;;29.38;;
76292;SDS011;67256;51.154;4.164;2023-02-15T15:40:57;56.47;;;31.40;;
76292;SDS011;67256;51.154;4.164;2023-02-15T15:49:39;49.70;;;29.90;;
76292;SDS011;67256;51.154;4.164;2023-02-15T15:52:13;49.17;;;32.45;;
76292;SDS011;67256;51.154;4.164;2023-02-15T15:54:41;49.63;;;33.33;;
76292;SDS011;67256;51.154;4.164;2023-02-15T15:59:54;48.10;;;32.50;;
76292;SDS011;67256;51.154;4.164;2023-02-15T16:04:49;48.90;;;31.55;;
76292;SDS011;67256;51.154;4.164;2023-02-15T16:09:53;53.30;;;32.80;;
76292;SDS011;67256;51.154;4.164;2023-02-15T16:12:25;50.33;;;33.40;;
76292;SDS011;67256;51.154;4.164;2023-02-15T16:14:56;51.63;;;30.92;;
76292;SDS011;67256;51.154;4.164;2023-02-15T16:19:58;55.90;;;33.33;;
76292;SDS011;67256;51.154;4.164;2023-02-15T16:22:39;50.35;;;33.58;;
76292;SDS011;67256;51.154;4.164;2023-02-15T16:27:43;47.55;;;31.35;;
76292;SDS011;67256;51.154;4.164;2023-02-15T16:30:43;53.35;;;32.38;;
76292;SDS011;67256;51.154;4.164;2023-02-15T16:33:08;49.95;;;32.10;;
76292;SDS011;67256;51.154;4.164;2023-02-15T16:35:37;49.10;;;31.83;;
76292;SDS011;67256;51.154;4.164;2023-02-15T16:39:10;43.28;;;29.80;;
76292;SDS011;67256;51.154;4.164;2023-02-15T16:41:21;48.88;;;31.55;;
76292;SDS011;67256;51.154;4.164;2023-02-15T16:43:56;48.47;;;30.73;;
76292;SDS011;67256;51.154;4.164;2023-02-15T16:46:31;49.63;;;32.13;;
76292;SDS011;67256;51.154;4.164;2023-02-15T16:49:01;51.72;;;32.17;;
76292;SDS011;67256;51.154;4.164;2023-02-15T16:53:58;45.67;;;31.17;;
76292;SDS011;67256;51.154;4.164;2023-02-15T16:56:30;51.30;;;29.25;;
76292;SDS011;67256;51.154;4.164;2023-02-15T16:58:57;51.35;;;31.27;;
76292;SDS011;67256;51.154;4.164;2023-02-15T17:01:25;49.42;;;30.40;;
76292;SDS011;67256;51.154;4.164;2023-02-15T17:04:12;50.13;;;30.85;;
76292;SDS011;67256;51.154;4.164;2023-02-15T17:09:56;52.65;;;29.80;;
76292;SDS011;67256;51.154;4.164;2023-02-15T17:15:31;54.53;;;31.77;;
76292;SDS011;67256;51.154;4.164;2023-02-15T17:17:58;49.00;;;30.50;;
76292;SDS011;67256;51.154;4.164;2023-02-15T17:20:29;52.47;;;33.42;;
76292;SDS011;67256;51.154;4.164;2023-02-15T17:22:56;48.45;;;32.15;;
76292;SDS011;67256;51.154;4.164;2023-02-15T17:25:28;56.38;;;33.20;;
76292;SDS011;67256;51.154;4.164;2023-02-15T17:28:02;49.58;;;33.10;;
76292;SDS011;67256;51.154;4.164;2023-02-15T17:30:30;52.10;;;33.05;;
76292;SDS011;67256;51.154;4.164;2023-02-15T17:32:59;51.25;;;31.90;;
76292;SDS011;67256;51.154;4.164;2023-02-15T17:35:32;51.20;;;32.20;;
76292;SDS011;67256;51.154;4.164;2023-02-15T17:38:18;58.90;;;33.72;;
76292;SDS011;67256;51.154;4.164;2023-02-15T17:40:45;50.78;;;34.17;;
76292;SDS011;67256;51.154;4.164;2023-02-15T17:43:12;59.88;;;34.75;;
76292;SDS011;67256;51.154;4.164;2023-02-15T17:45:40;59.20;;;33.75;;
76292;SDS011;67256;51.154;4.164;2023-02-15T17:48:12;66.78;;;35.03;;
76292;SDS011;67256;51.154;4.164;2023-02-15T17:50:58;54.45;;;33.85;;
76292;SDS011;67256;51.154;4.164;2023-02-15T17:53:25;54.20;;;33.63;;
76292;SDS011;67256;51.154;4.164;2023-02-15T17:55:51;58.25;;;34.58;;
76292;SDS011;67256;51.154;4.164;2023-02-15T17:58:18;55.55;;;34.20;;
76292;SDS011;67256;51.154;4.164;2023-02-15T18:00:54;58.70;;;35.03;;
76292;SDS011;67256;51.154;4.164;2023-02-15T18:03:51;57.10;;;33.88;;
76292;SDS011;67256;51.154;4.164;2023-02-15T18:06:36;53.35;;;35.70;;
76292;SDS011;67256;51.154;4.164;2023-02-15T18:09:22;52.08;;;34.72;;
76292;SDS011;67256;51.154;4.164;2023-02-15T18:17:14;55.28;;;35.35;;
76292;SDS011;67256;51.154;4.164;2023-02-15T18:19:41;53.25;;;35.40;;